sensor_id;sensor_type;location;lat;lon;timestamp;P1;durP1;ratioP1;P2;durP2;ratioP2
59314;SDS011;46521;50.160;20.802;2022-08-01T00:09:25;6.50;;;3.20;;
59314;SDS011;46521;50.160;20.802;2022-08-01T00:19:27;7.70;;;3.88;;
59314;SDS011;46521;50.160;20.802;2022-08-01T00:29:28;8.05;;;3.65;;
59314;SDS011;46521;50.160;20.802;2022-08-01T00:39:29;8.35;;;4.93;;
59314;SDS011;46521;50.160;20.802;2022-08-01T00:49:33;8.50;;;5.55;;
59314;SDS011;46521;50.160;20.802;2022-08-01T00:59:35;10.08;;;6.88;;
59314;SDS011;46521;50.160;20.802;2022-08-01T01:09:52;8.60;;;5.47;;
59314;SDS011;46521;50.160;20.802;2022-08-01T01:20:01;7.23;;;4.80;;
59314;SDS011;46521;50.160;20.802;2022-08-01T01:30:04;8.05;;;4.53;;
59314;SDS011;46521;50.160;20.802;2022-08-01T01:40:07;7.60;;;4.83;;
59314;SDS011;46521;50.160;20.802;2022-08-01T01:50:11;8.60;;;6.35;;
59314;SDS011;46521;50.160;20.802;2022-08-01T02:00:13;9.98;;;6.98;;
59314;SDS011;46521;50.160;20.802;2022-08-01T02:10:16;10.50;;;6.40;;
59314;SDS011;46521;50.160;20.802;2022-08-01T02:20:19;8.95;;;5.63;;
59314;SDS011;46521;50.160;20.802;2022-08-01T02:30:20;7.95;;;5.13;;
59314;SDS011;46521;50.160;20.802;2022-08-01T02:40:29;9.40;;;5.17;;
59314;SDS011;46521;50.160;20.802;2022-08-01T02:50:33;8.83;;;5.33;;
59314;SDS011;46521;50.160;20.802;2022-08-01T03:00:36;8.20;;;5.60;;
59314;SDS011;46521;50.160;20.802;2022-08-01T03:10:41;9.75;;;6.10;;
59314;SDS011;46521;50.160;20.802;2022-08-01T03:20:45;10.50;;;6.15;;
59314;SDS011;46521;50.160;20.802;2022-08-01T03:30:47;9.68;;;5.63;;
59314;SDS011;46521;50.160;20.802;2022-08-01T03:40:59;9.68;;;6.15;;
59314;SDS011;46521;50.160;20.802;2022-08-01T03:51:09;8.68;;;5.98;;
59314;SDS011;46521;50.160;20.802;2022-08-01T04:01:11;8.18;;;5.28;;
59314;SDS011;46521;50.160;20.802;2022-08-01T04:11:13;9.03;;;5.68;;
59314;SDS011;46521;50.160;20.802;2022-08-01T04:21:15;7.65;;;4.93;;
59314;SDS011;46521;50.160;20.802;2022-08-01T04:31:22;7.67;;;5.03;;
59314;SDS011;46521;50.160;20.802;2022-08-01T04:41:27;7.95;;;4.68;;
59314;SDS011;46521;50.160;20.802;2022-08-01T04:51:30;8.43;;;4.67;;
59314;SDS011;46521;50.160;20.802;2022-08-01T05:01:32;8.00;;;4.28;;
59314;SDS011;46521;50.160;20.802;2022-08-01T05:11:33;8.35;;;4.80;;
59314;SDS011;46521;50.160;20.802;2022-08-01T05:21:34;8.08;;;4.70;;
59314;SDS011;46521;50.160;20.802;2022-08-01T05:31:36;7.28;;;4.58;;
59314;SDS011;46521;50.160;20.802;2022-08-01T05:41:38;8.28;;;4.95;;
59314;SDS011;46521;50.160;20.802;2022-08-01T05:51:40;10.68;;;7.35;;
59314;SDS011;46521;50.160;20.802;2022-08-01T06:01:42;10.10;;;6.25;;
59314;SDS011;46521;50.160;20.802;2022-08-01T06:11:43;9.78;;;6.10;;
59314;SDS011;46521;50.160;20.802;2022-08-01T06:21:44;8.93;;;5.77;;
59314;SDS011;46521;50.160;20.802;2022-08-01T06:31:46;9.00;;;4.58;;
59314;SDS011;46521;50.160;20.802;2022-08-01T06:41:47;7.48;;;4.38;;
59314;SDS011;46521;50.160;20.802;2022-08-01T06:51:49;8.15;;;5.35;;
59314;SDS011;46521;50.160;20.802;2022-08-01T07:01:50;8.85;;;5.60;;
59314;SDS011;46521;50.160;20.802;2022-08-01T07:11:51;10.55;;;5.73;;
59314;SDS011;46521;50.160;20.802;2022-08-01T07:21:54;9.18;;;5.60;;
59314;SDS011;46521;50.160;20.802;2022-08-01T07:31:57;7.75;;;5.83;;
59314;SDS011;46521;50.160;20.802;2022-08-01T07:41:59;9.53;;;6.05;;
59314;SDS011;46521;50.160;20.802;2022-08-01T07:52:00;8.40;;;6.33;;
59314;SDS011;46521;50.160;20.802;2022-08-01T08:02:02;8.70;;;4.83;;
59314;SDS011;46521;50.160;20.802;2022-08-01T08:12:03;12.13;;;7.98;;
59314;SDS011;46521;50.160;20.802;2022-08-01T08:22:07;7.10;;;4.55;;
59314;SDS011;46521;50.160;20.802;2022-08-01T08:32:09;11.33;;;9.80;;
59314;SDS011;46521;50.160;20.802;2022-08-01T08:42:11;8.75;;;5.75;;
59314;SDS011;46521;50.160;20.802;2022-08-01T08:52:12;7.78;;;4.40;;
59314;SDS011;46521;50.160;20.802;2022-08-01T09:02:15;8.53;;;5.60;;
59314;SDS011;46521;50.160;20.802;2022-08-01T09:12:17;8.88;;;5.15;;
59314;SDS011;46521;50.160;20.802;2022-08-01T09:22:23;6.60;;;4.00;;
59314;SDS011;46521;50.160;20.802;2022-08-01T09:32:25;7.25;;;4.40;;
59314;SDS011;46521;50.160;20.802;2022-08-01T09:42:27;6.27;;;3.47;;
59314;SDS011;46521;50.160;20.802;2022-08-01T09:52:29;6.95;;;3.30;;
59314;SDS011;46521;50.160;20.802;2022-08-01T10:02:37;7.30;;;4.13;;
59314;SDS011;46521;50.160;20.802;2022-08-01T10:12:42;5.85;;;2.75;;
59314;SDS011;46521;50.160;20.802;2022-08-01T10:22:44;7.08;;;3.08;;
59314;SDS011;46521;50.160;20.802;2022-08-01T10:32:47;7.73;;;3.75;;
59314;SDS011;46521;50.160;20.802;2022-08-01T10:42:50;5.93;;;2.47;;
59314;SDS011;46521;50.160;20.802;2022-08-01T10:53:12;6.20;;;2.63;;
59314;SDS011;46521;50.160;20.802;2022-08-01T11:03:16;6.30;;;2.80;;
59314;SDS011;46521;50.160;20.802;2022-08-01T11:24:01;5.05;;;2.45;;
59314;SDS011;46521;50.160;20.802;2022-08-01T11:34:03;5.27;;;2.80;;
59314;SDS011;46521;50.160;20.802;2022-08-01T12:04:10;5.87;;;3.17;;
59314;SDS011;46521;50.160;20.802;2022-08-01T12:14:18;5.90;;;2.93;;
59314;SDS011;46521;50.160;20.802;2022-08-01T12:24:21;6.58;;;3.23;;
59314;SDS011;46521;50.160;20.802;2022-08-01T12:34:27;6.75;;;3.13;;
59314;SDS011;46521;50.160;20.802;2022-08-01T12:44:29;6.73;;;3.37;;
59314;SDS011;46521;50.160;20.802;2022-08-01T12:54:59;7.00;;;3.20;;
59314;SDS011;46521;50.160;20.802;2022-08-01T13:05:05;6.78;;;3.50;;
59314;SDS011;46521;50.160;20.802;2022-08-01T13:25:19;5.93;;;3.10;;
59314;SDS011;46521;50.160;20.802;2022-08-01T13:35:21;6.33;;;3.17;;
59314;SDS011;46521;50.160;20.802;2022-08-01T13:45:22;7.05;;;3.38;;
59314;SDS011;46521;50.160;20.802;2022-08-01T13:55:24;7.70;;;3.20;;
59314;SDS011;46521;50.160;20.802;2022-08-01T14:05:25;6.15;;;3.35;;
59314;SDS011;46521;50.160;20.802;2022-08-01T14:15:27;6.30;;;3.00;;
59314;SDS011;46521;50.160;20.802;2022-08-01T14:25:28;6.70;;;3.35;;
59314;SDS011;46521;50.160;20.802;2022-08-01T14:35:30;6.93;;;3.60;;
59314;SDS011;46521;50.160;20.802;2022-08-01T14:45:31;6.93;;;4.10;;
59314;SDS011;46521;50.160;20.802;2022-08-01T14:55:33;6.83;;;3.30;;
59314;SDS011;46521;50.160;20.802;2022-08-01T15:05:34;7.18;;;3.60;;
59314;SDS011;46521;50.160;20.802;2022-08-01T15:15:37;6.53;;;3.85;;
59314;SDS011;46521;50.160;20.802;2022-08-01T15:25:38;6.97;;;4.20;;
59314;SDS011;46521;50.160;20.802;2022-08-01T15:35:39;7.13;;;4.03;;
59314;SDS011;46521;50.160;20.802;2022-08-01T15:45:41;6.98;;;4.18;;
59314;SDS011;46521;50.160;20.802;2022-08-01T15:55:43;7.00;;;4.45;;
59314;SDS011;46521;50.160;20.802;2022-08-01T16:05:44;7.48;;;4.48;;
59314;SDS011;46521;50.160;20.802;2022-08-01T16:15:45;7.68;;;3.88;;
59314;SDS011;46521;50.160;20.802;2022-08-01T16:25:47;7.47;;;3.87;;
59314;SDS011;46521;50.160;20.802;2022-08-01T16:35:48;8.05;;;4.10;;
59314;SDS011;46521;50.160;20.802;2022-08-01T16:45:50;7.40;;;4.45;;
59314;SDS011;46521;50.160;20.802;2022-08-01T16:55:51;7.83;;;4.20;;
59314;SDS011;46521;50.160;20.802;2022-08-01T17:05:52;7.03;;;4.70;;
59314;SDS011;46521;50.160;20.802;2022-08-01T17:15:54;9.58;;;4.20;;
59314;SDS011;46521;50.160;20.802;2022-08-01T17:25:55;7.45;;;4.40;;
59314;SDS011;46521;50.160;20.802;2022-08-01T17:35:57;7.57;;;4.13;;
59314;SDS011;46521;50.160;20.802;2022-08-01T17:45:58;7.47;;;4.40;;
59314;SDS011;46521;50.160;20.802;2022-08-01T17:56:00;7.68;;;4.80;;
59314;SDS011;46521;50.160;20.802;2022-08-01T18:06:05;15.55;;;5.38;;
59314;SDS011;46521;50.160;20.802;2022-08-01T18:16:07;9.40;;;5.05;;
59314;SDS011;46521;50.160;20.802;2022-08-01T18:26:12;7.60;;;4.38;;
59314;SDS011;46521;50.160;20.802;2022-08-01T18:36:13;7.55;;;4.80;;
59314;SDS011;46521;50.160;20.802;2022-08-01T18:46:15;7.83;;;5.03;;
59314;SDS011;46521;50.160;20.802;2022-08-01T18:56:16;8.70;;;5.00;;
59314;SDS011;46521;50.160;20.802;2022-08-01T19:06:18;8.30;;;5.00;;
59314;SDS011;46521;50.160;20.802;2022-08-01T19:16:19;9.33;;;5.30;;
59314;SDS011;46521;50.160;20.802;2022-08-01T19:26:22;9.20;;;6.23;;
59314;SDS011;46521;50.160;20.802;2022-08-01T19:36:25;10.20;;;6.87;;
59314;SDS011;46521;50.160;20.802;2022-08-01T19:46:28;9.60;;;7.00;;
59314;SDS011;46521;50.160;20.802;2022-08-01T19:56:34;8.63;;;6.10;;
59314;SDS011;46521;50.160;20.802;2022-08-01T20:06:44;8.60;;;6.38;;
59314;SDS011;46521;50.160;20.802;2022-08-01T20:16:47;10.53;;;7.10;;
59314;SDS011;46521;50.160;20.802;2022-08-01T20:26:49;11.78;;;7.45;;
59314;SDS011;46521;50.160;20.802;2022-08-01T20:36:52;10.00;;;7.97;;
59314;SDS011;46521;50.160;20.802;2022-08-01T20:46:55;12.45;;;8.10;;
59314;SDS011;46521;50.160;20.802;2022-08-01T21:07:05;10.90;;;7.98;;
59314;SDS011;46521;50.160;20.802;2022-08-01T21:17:18;17.13;;;8.30;;
59314;SDS011;46521;50.160;20.802;2022-08-01T21:27:28;13.80;;;9.07;;
59314;SDS011;46521;50.160;20.802;2022-08-01T21:37:31;11.07;;;8.70;;
59314;SDS011;46521;50.160;20.802;2022-08-01T21:47:37;11.93;;;8.63;;
59314;SDS011;46521;50.160;20.802;2022-08-01T21:57:42;12.38;;;9.48;;
59314;SDS011;46521;50.160;20.802;2022-08-01T22:07:54;12.20;;;8.73;;
59314;SDS011;46521;50.160;20.802;2022-08-01T22:18:01;12.60;;;9.47;;
59314;SDS011;46521;50.160;20.802;2022-08-01T22:28:04;11.67;;;9.33;;
59314;SDS011;46521;50.160;20.802;2022-08-01T22:38:06;12.38;;;9.30;;
59314;SDS011;46521;50.160;20.802;2022-08-01T22:48:18;12.00;;;8.98;;
59314;SDS011;46521;50.160;20.802;2022-08-01T22:58:24;12.30;;;9.50;;
59314;SDS011;46521;50.160;20.802;2022-08-01T23:08:30;12.07;;;9.80;;
59314;SDS011;46521;50.160;20.802;2022-08-01T23:18:32;12.77;;;10.37;;
59314;SDS011;46521;50.160;20.802;2022-08-01T23:28:34;13.03;;;10.58;;
59314;SDS011;46521;50.160;20.802;2022-08-01T23:38:36;13.00;;;10.60;;
59314;SDS011;46521;50.160;20.802;2022-08-01T23:48:38;12.30;;;10.77;;
59314;SDS011;46521;50.160;20.802;2022-08-01T23:58:40;14.53;;;10.88;;
